createdAt,value
2019-02-18T00:00:53.838Z,105.60
2019-02-18T00:03:23.406Z,124.80
2019-02-18T00:05:52.431Z,112.30
2019-02-18T00:08:21.420Z,113.97
2019-02-18T00:10:51.582Z,105.15
2019-02-18T00:13:20.538Z,98.85
2019-02-18T00:15:49.635Z,83.72
2019-02-18T00:18:19.456Z,88.37
2019-02-18T00:20:49.035Z,86.30
2019-02-18T00:23:17.849Z,78.35
2019-02-18T00:25:46.774Z,72.92
2019-02-18T00:28:15.738Z,77.95
2019-02-18T00:30:45.601Z,68.90
2019-02-18T00:33:15.182Z,70.57
2019-02-18T00:35:44.566Z,64.32
2019-02-18T00:38:15.056Z,65.65
2019-02-18T00:40:44.434Z,63.55
2019-02-18T00:43:13.996Z,62.03
2019-02-18T00:45:43.093Z,64.40
2019-02-18T00:48:12.352Z,64.95
2019-02-18T00:50:41.538Z,65.12
2019-02-18T00:53:10.499Z,60.17
2019-02-18T00:55:39.874Z,59.35
2019-02-18T00:58:09.080Z,61.95
2019-02-18T01:00:37.967Z,58.25
2019-02-18T01:03:07.133Z,61.08
2019-02-18T01:05:36.052Z,63.87
2019-02-18T01:08:05.562Z,57.20
2019-02-18T01:10:34.535Z,65.78
2019-02-18T01:13:03.464Z,75.95
2019-02-18T01:15:32.354Z,80.72
2019-02-18T01:18:01.816Z,71.97
2019-02-18T01:20:31.533Z,70.22
2019-02-18T01:23:00.464Z,69.60
2019-02-18T01:25:29.351Z,65.95
2019-02-18T01:27:58.740Z,70.17
2019-02-18T01:30:27.745Z,63.73
2019-02-18T01:32:57.055Z,72.90
2019-02-18T01:35:26.371Z,69.85
2019-02-18T01:37:55.335Z,69.15
2019-02-18T01:40:25.192Z,66.65
2019-02-18T01:42:54.127Z,68.92
2019-02-18T01:45:23.751Z,69.75
2019-02-18T01:47:52.797Z,61.00
2019-02-18T01:50:22.138Z,70.03
2019-02-18T01:52:51.286Z,60.43
2019-02-18T01:55:20.542Z,71.28
2019-02-18T01:57:49.531Z,65.65
2019-02-18T02:00:18.695Z,67.03
2019-02-18T02:02:47.834Z,66.25
2019-02-18T02:05:17.519Z,67.50
2019-02-18T02:07:55.904Z,66.90
2019-02-18T02:10:16.160Z,60.85
2019-02-18T02:12:45.018Z,66.20
2019-02-18T02:15:17.664Z,66.42
2019-02-18T02:17:47.496Z,63.85
2019-02-18T02:20:16.548Z,62.83
2019-02-18T02:22:46.471Z,60.33
2019-02-18T02:25:15.227Z,60.55
2019-02-18T02:27:45.444Z,62.53
2019-02-18T02:30:14.546Z,65.80
2019-02-18T02:32:44.377Z,60.73
2019-02-18T02:35:13.531Z,59.48
2019-02-18T02:37:43.122Z,70.87
2019-02-18T02:40:13.079Z,59.38
2019-02-18T02:42:42.796Z,61.68
2019-02-18T02:45:12.851Z,60.43
2019-02-18T02:47:41.908Z,60.03
2019-02-18T02:50:11.720Z,62.80
2019-02-18T02:52:40.757Z,57.88
2019-02-18T02:55:10.726Z,58.95
2019-02-18T02:57:41.286Z,56.37
2019-02-18T03:00:10.670Z,64.00
2019-02-18T03:02:39.669Z,65.28
2019-02-18T03:05:08.598Z,76.87
2019-02-18T03:07:38.360Z,87.65
2019-02-18T03:10:07.581Z,70.55
2019-02-18T03:12:37.167Z,56.20
2019-02-18T03:15:06.260Z,63.20
2019-02-18T03:17:35.359Z,53.15
2019-02-18T03:20:04.566Z,59.77
2019-02-18T03:22:33.819Z,61.10
2019-02-18T03:25:13.407Z,55.08
2019-02-18T03:27:42.475Z,59.85
2019-02-18T03:30:51.539Z,62.40
2019-02-18T03:33:24.153Z,78.72
2019-02-18T03:35:52.994Z,77.22
2019-02-18T03:38:31.219Z,94.22
2019-02-18T03:41:02.816Z,106.87
2019-02-18T04:00:08.430Z,136.00
2019-02-18T04:02:37.579Z,134.57
2019-02-18T04:05:07.046Z,133.27
2019-02-18T04:07:36.693Z,122.98
2019-02-18T04:10:05.874Z,115.30
2019-02-18T04:12:34.936Z,104.50
2019-02-18T04:15:04.806Z,83.62
2019-02-18T04:17:33.741Z,80.55
2019-02-18T04:20:02.974Z,79.82
2019-02-18T04:22:32.530Z,73.67
2019-02-18T04:25:02.115Z,90.00
2019-02-18T04:27:31.062Z,99.47
2019-02-18T04:30:00.430Z,90.15
2019-02-18T04:32:29.331Z,93.72
2019-02-18T04:34:58.724Z,93.62
2019-02-18T04:37:28.530Z,96.25
2019-02-18T04:39:58.521Z,105.32
2019-02-18T04:42:27.598Z,143.22
2019-02-18T04:44:56.606Z,154.27
2019-02-18T04:47:25.893Z,177.72
2019-02-18T04:49:54.739Z,224.05
2019-02-18T04:52:23.848Z,221.82
2019-02-18T04:54:52.793Z,216.80
2019-02-18T04:57:21.852Z,149.25
2019-02-18T04:59:50.858Z,123.97
2019-02-18T05:02:20.114Z,112.97
2019-02-18T05:04:49.114Z,109.40
2019-02-18T05:07:18.085Z,106.17
2019-02-18T05:09:47.224Z,66.97
2019-02-18T05:12:16.121Z,74.42
2019-02-18T05:14:45.242Z,86.45
2019-02-18T05:17:14.403Z,99.80
2019-02-18T05:19:43.394Z,90.20
2019-02-18T05:22:13.142Z,89.95
2019-02-18T05:24:42.097Z,87.70
2019-02-18T05:27:11.651Z,96.53
2019-02-18T05:29:41.534Z,195.30
2019-02-18T05:32:10.619Z,137.45
2019-02-18T05:34:39.624Z,105.20
2019-02-18T05:37:08.845Z,116.77
2019-02-18T05:39:37.917Z,101.33
2019-02-18T05:42:06.588Z,99.77
2019-02-18T05:44:35.516Z,109.20
2019-02-18T05:47:04.640Z,172.80
2019-02-18T05:49:33.480Z,130.25
2019-02-18T05:52:03.227Z,120.97
2019-02-18T05:54:33.441Z,160.35
2019-02-18T05:57:02.384Z,173.38
2019-02-18T05:59:31.759Z,199.65
2019-02-18T06:02:00.841Z,254.65
2019-02-18T06:04:30.010Z,260.17
2019-02-18T06:06:59.125Z,280.65
2019-02-18T06:09:30.222Z,261.25
2019-02-18T06:11:57.396Z,280.70
2019-02-18T06:14:26.737Z,288.50
2019-02-18T06:16:55.729Z,318.27
2019-02-18T06:19:25.575Z,306.77
2019-02-18T06:21:55.045Z,308.23
2019-02-18T06:24:24.038Z,365.75
2019-02-18T06:26:53.825Z,374.52
2019-02-18T06:29:22.849Z,376.90
2019-02-18T06:31:51.795Z,285.80
2019-02-18T06:34:20.688Z,264.77
2019-02-18T06:36:50.509Z,185.78
2019-02-18T06:39:19.715Z,178.42
2019-02-18T06:41:48.806Z,174.80
2019-02-18T06:44:19.007Z,184.30
2019-02-18T06:46:53.855Z,195.62
2019-02-18T06:49:25.365Z,193.45
2019-02-18T06:51:54.397Z,192.00
2019-02-18T06:54:23.395Z,200.78
2019-02-18T06:57:55.469Z,181.75
2019-02-18T07:00:28.474Z,196.82
2019-02-18T07:03:06.481Z,201.88
2019-02-18T07:05:41.582Z,177.43
2019-02-18T07:08:18.611Z,177.57
2019-02-18T07:10:51.963Z,167.57
2019-02-18T07:13:21.032Z,162.12
2019-02-18T07:15:50.061Z,161.90
2019-02-18T07:18:19.164Z,152.82
2019-02-18T07:20:48.299Z,158.05
2019-02-18T07:23:17.555Z,165.07
2019-02-18T07:25:47.337Z,145.60
2019-02-18T07:28:16.246Z,138.03
2019-02-18T07:30:45.154Z,137.25
2019-02-18T07:33:14.349Z,136.50
2019-02-18T07:35:43.272Z,139.60
2019-02-18T07:38:12.599Z,136.68
2019-02-18T07:40:42.153Z,128.02
2019-02-18T07:43:12.197Z,124.67
2019-02-18T07:45:41.421Z,120.87
2019-02-18T07:48:10.576Z,120.13
2019-02-18T07:50:39.899Z,107.10
2019-02-18T07:53:08.948Z,111.95
2019-02-18T07:55:38.043Z,129.07
2019-02-18T07:58:07.605Z,105.45
2019-02-18T08:00:36.656Z,106.65
2019-02-18T08:03:05.649Z,99.60
2019-02-18T08:05:34.862Z,97.33
2019-02-18T08:08:03.771Z,94.03
2019-02-18T08:10:32.636Z,107.37
2019-02-18T08:13:01.657Z,97.92
2019-02-18T08:15:30.947Z,102.40
2019-02-18T08:18:00.727Z,106.67
2019-02-18T08:20:30.464Z,101.90
2019-02-18T08:22:59.747Z,102.97
2019-02-18T08:25:29.076Z,95.95
2019-02-18T08:27:58.249Z,93.82
2019-02-18T08:30:27.803Z,86.20
2019-02-18T08:32:56.955Z,88.78
2019-02-18T08:35:26.057Z,90.85
2019-02-18T08:37:55.033Z,78.15
2019-02-18T08:40:24.665Z,77.92
2019-02-18T08:42:53.620Z,77.62
2019-02-18T08:45:23.176Z,72.30
2019-02-18T08:47:52.207Z,70.08
2019-02-18T08:50:21.672Z,68.85
2019-02-18T08:52:51.383Z,71.87
2019-02-18T08:55:20.330Z,71.85
2019-02-18T08:57:49.223Z,71.72
2019-02-18T09:00:18.310Z,70.80
2019-02-18T09:02:48.104Z,76.25
2019-02-18T09:05:17.230Z,71.85
2019-02-18T09:07:46.148Z,71.82
2019-02-18T09:10:15.862Z,77.10
2019-02-18T09:12:44.960Z,75.00
2019-02-18T09:15:14.521Z,78.83
2019-02-18T09:17:43.288Z,72.47
2019-02-18T09:20:12.445Z,78.28
2019-02-18T09:23:50.566Z,74.22
2019-02-18T09:26:19.553Z,76.60
2019-02-18T09:28:48.346Z,76.60
2019-02-18T09:31:17.364Z,74.12
2019-02-18T09:33:46.336Z,75.83
2019-02-18T09:36:15.731Z,72.87
2019-02-18T09:38:44.772Z,70.40
2019-02-18T09:41:14.125Z,74.82
2019-02-18T09:43:43.242Z,67.82
2019-02-18T09:46:12.777Z,74.40
2019-02-18T09:48:42.106Z,67.75
2019-02-18T09:51:11.554Z,67.90
2019-02-18T09:53:40.621Z,69.07
2019-02-18T09:56:10.659Z,68.37
2019-02-18T09:58:40.484Z,68.87
2019-02-18T10:01:09.522Z,66.17
2019-02-18T10:03:38.342Z,73.75
2019-02-18T10:06:07.924Z,71.97
2019-02-18T10:08:37.051Z,68.62
2019-02-18T10:11:05.971Z,73.07
2019-02-18T10:13:35.350Z,76.00
2019-02-18T10:16:05.288Z,72.93
2019-02-18T10:18:34.273Z,73.10
2019-02-18T10:21:03.266Z,76.77
2019-02-18T10:23:33.460Z,74.20
2019-02-18T10:26:02.493Z,73.27
2019-02-18T10:28:32.013Z,68.77
2019-02-18T10:31:01.007Z,71.93
2019-02-18T10:33:30.375Z,70.27
2019-02-18T10:35:59.679Z,73.40
2019-02-18T10:38:29.080Z,69.47
2019-02-18T10:41:06.649Z,69.07
2019-02-18T10:43:32.411Z,65.57
2019-02-18T10:45:57.324Z,69.23
2019-02-18T10:48:26.488Z,66.20
2019-02-18T10:50:55.497Z,66.43
2019-02-18T10:53:26.164Z,66.13
2019-02-18T10:55:56.470Z,69.20
2019-02-18T10:58:25.584Z,73.77
2019-02-18T11:00:54.576Z,69.73
2019-02-18T11:03:24.544Z,69.93
2019-02-18T11:05:53.935Z,67.90
2019-02-18T11:08:23.384Z,70.30
2019-02-18T11:10:52.799Z,82.50
2019-02-18T11:13:22.591Z,75.77
2019-02-18T11:15:52.328Z,67.20
2019-02-18T11:18:21.383Z,68.10
2019-02-18T11:20:50.576Z,71.43
2019-02-18T11:23:19.712Z,64.60
2019-02-18T11:25:48.873Z,62.43
2019-02-18T11:45:03.516Z,64.93
2019-02-18T11:47:32.598Z,74.87
2019-02-18T11:50:02.273Z,78.33
2019-02-18T11:52:31.271Z,64.93
2019-02-18T11:55:01.362Z,65.63
2019-02-18T11:57:31.708Z,68.57
2019-02-18T11:59:59.863Z,60.33
2019-02-18T12:02:28.805Z,60.70
2019-02-18T12:04:57.964Z,57.60
2019-02-18T12:07:27.900Z,65.00
2019-02-18T12:09:56.971Z,67.37
2019-02-18T12:12:26.074Z,57.53
2019-02-18T12:14:55.131Z,63.37
2019-02-18T12:17:24.255Z,62.37
2019-02-18T12:19:53.534Z,57.00
2019-02-18T12:22:22.931Z,52.80
2019-02-18T12:24:51.828Z,58.23
2019-02-18T12:27:21.059Z,55.33
2019-02-18T12:29:50.412Z,55.47
2019-02-18T12:32:19.562Z,55.60
2019-02-18T12:34:49.224Z,53.43
2019-02-18T12:37:18.402Z,53.90
2019-02-18T12:39:47.657Z,61.87
2019-02-18T12:42:17.341Z,62.63
2019-02-18T12:44:46.460Z,62.60
2019-02-18T12:47:15.518Z,69.60
2019-02-18T12:49:44.580Z,59.67
2019-02-18T12:52:13.998Z,59.27
2019-02-18T12:54:43.172Z,50.97
2019-02-18T12:57:12.858Z,54.80
2019-02-18T12:59:42.142Z,50.30
2019-02-18T13:02:12.161Z,55.33
2019-02-18T13:04:41.089Z,60.40
2019-02-18T13:07:10.221Z,49.53
2019-02-18T13:09:40.247Z,52.13
2019-02-18T13:12:09.554Z,48.57
2019-02-18T13:14:39.945Z,53.07
2019-02-18T13:17:09.467Z,59.00
2019-02-18T13:19:38.920Z,64.57
2019-02-18T13:22:08.929Z,59.20
2019-02-18T13:24:39.353Z,60.17
2019-02-18T13:27:08.475Z,49.00
2019-02-18T13:29:38.112Z,54.63
2019-02-18T13:32:07.145Z,58.03
2019-02-18T13:34:37.192Z,52.23
2019-02-18T13:37:11.180Z,61.63
2019-02-18T13:39:40.103Z,54.67
2019-02-18T13:42:08.899Z,49.67
2019-02-18T13:44:38.327Z,54.60
2019-02-18T13:47:07.509Z,51.00
2019-02-18T13:49:37.617Z,54.93
2019-02-18T13:52:06.860Z,52.57
2019-02-18T13:54:36.417Z,57.03
2019-02-18T13:57:10.033Z,49.77
2019-02-18T13:59:35.531Z,56.43
2019-02-18T14:02:04.748Z,51.77
2019-02-18T14:04:34.259Z,46.90
2019-02-18T14:07:03.404Z,47.27
2019-02-18T14:09:34.291Z,41.33
2019-02-18T14:12:03.663Z,39.97
2019-02-18T14:14:33.203Z,64.23
2019-02-18T14:17:02.379Z,75.70
2019-02-18T14:19:31.299Z,46.60
2019-02-18T14:22:00.492Z,39.43
2019-02-18T14:24:30.733Z,42.20
2019-02-18T14:27:00.320Z,46.40
2019-02-18T14:29:30.599Z,49.50
2019-02-18T14:32:00.393Z,55.87
2019-02-18T14:34:29.507Z,53.17
2019-02-18T14:36:59.262Z,50.57
2019-02-18T14:39:28.144Z,51.27
2019-02-18T14:41:57.372Z,46.63
2019-02-18T15:01:11.220Z,40.13
2019-02-18T15:03:41.263Z,42.87
2019-02-18T15:06:10.702Z,44.97
2019-02-18T15:08:39.507Z,46.70
2019-02-18T15:11:07.430Z,51.90
2019-02-18T15:13:36.445Z,48.07
2019-02-18T15:16:05.937Z,46.90
2019-02-18T15:18:36.304Z,42.13
2019-02-18T15:21:06.050Z,45.13
2019-02-18T15:23:35.014Z,50.53
2019-02-18T15:26:04.175Z,41.90
2019-02-18T15:28:33.004Z,52.87
2019-02-18T15:31:02.502Z,50.07
2019-02-18T15:33:31.765Z,64.77
2019-02-18T15:36:02.397Z,75.87
2019-02-18T15:38:31.479Z,68.73
2019-02-18T15:41:00.575Z,61.43
2019-02-18T15:43:30.672Z,75.90
2019-02-18T15:45:59.910Z,65.70
2019-02-18T15:48:29.520Z,80.60
2019-02-18T15:50:58.629Z,77.23
2019-02-18T15:53:27.663Z,79.33
2019-02-18T15:55:56.999Z,79.83
2019-02-18T15:58:26.182Z,80.57
2019-02-18T16:17:39.847Z,95.10
2019-02-18T16:20:10.767Z,104.07
2019-02-18T16:22:39.650Z,88.70
2019-02-18T16:25:11.603Z,88.57
2019-02-18T16:27:40.900Z,93.03
2019-02-18T16:30:12.380Z,90.00
2019-02-18T16:32:41.497Z,87.20
2019-02-18T16:35:10.727Z,98.25
2019-02-18T16:37:40.576Z,91.45
2019-02-18T16:40:11.678Z,100.60
2019-02-18T16:42:40.843Z,98.13
2019-02-18T16:45:11.466Z,102.23
2019-02-18T16:47:40.629Z,103.42
2019-02-18T17:06:55.667Z,89.13
2019-02-18T17:09:25.074Z,73.57
2019-02-18T17:11:54.734Z,79.37
2019-02-18T17:14:23.883Z,91.50
2019-02-18T17:16:52.969Z,77.95
2019-02-18T17:19:21.985Z,79.40
2019-02-18T17:21:50.923Z,77.58
2019-02-18T17:41:05.608Z,129.57
2019-02-18T17:43:34.692Z,133.97
2019-02-18T17:46:03.969Z,132.27
2019-02-18T17:48:33.096Z,150.50
2019-02-18T17:53:26.949Z,138.70
2019-02-18T17:55:55.878Z,155.05
2019-02-18T17:58:24.904Z,140.45
2019-02-18T18:00:54.877Z,103.20
2019-02-18T18:03:23.873Z,139.15
2019-02-18T18:05:53.398Z,117.08
2019-02-18T18:08:22.500Z,101.40
2019-02-18T18:10:51.500Z,104.75
2019-02-18T18:13:25.103Z,92.20
2019-02-18T18:15:50.931Z,94.90
2019-02-18T18:18:20.132Z,87.88
2019-02-18T18:20:49.222Z,88.55
2019-02-18T18:23:18.175Z,68.90
2019-02-18T18:25:47.002Z,64.90
2019-02-18T18:28:16.399Z,56.35
2019-02-18T18:30:45.243Z,75.85
2019-02-18T18:33:14.368Z,73.12
2019-02-18T18:35:43.286Z,67.22
2019-02-18T18:38:12.351Z,86.53
2019-02-18T18:40:41.467Z,103.50
2019-02-18T18:43:10.542Z,69.77
2019-02-18T18:45:40.388Z,84.77
2019-02-18T18:48:09.729Z,167.82
2019-02-18T18:50:39.320Z,107.95
2019-02-18T18:53:08.808Z,107.22
2019-02-18T18:55:37.930Z,99.83
2019-02-18T18:58:07.101Z,92.50
2019-02-18T19:00:36.770Z,92.67
2019-02-18T19:03:06.067Z,92.50
2019-02-18T19:05:35.205Z,82.97
2019-02-18T19:08:04.071Z,92.30
2019-02-18T19:10:33.272Z,77.87
2019-02-18T19:13:02.369Z,93.30
2019-02-18T19:15:38.663Z,86.15
2019-02-18T19:18:09.691Z,83.95
2019-02-18T19:23:26.316Z,85.62
2019-02-18T19:25:55.441Z,69.25
2019-02-18T19:28:24.727Z,84.45
2019-02-18T19:30:53.638Z,87.92
2019-02-18T19:33:22.696Z,79.17
2019-02-18T19:35:51.796Z,86.05
2019-02-18T19:38:21.134Z,81.05
2019-02-18T19:40:50.198Z,76.82
2019-02-18T19:43:19.279Z,69.32
2019-02-18T19:45:48.455Z,55.00
2019-02-18T19:48:17.670Z,50.90
2019-02-18T19:50:46.655Z,53.87
2019-02-18T19:53:15.691Z,62.88
2019-02-18T19:55:45.268Z,49.13
2019-02-18T19:58:14.448Z,70.55
2019-02-18T20:00:43.604Z,64.85
2019-02-18T20:03:12.665Z,77.10
2019-02-18T20:05:41.857Z,81.95
2019-02-18T20:08:11.500Z,88.00
2019-02-18T20:10:40.349Z,87.02
2019-02-18T20:13:09.766Z,91.70
2019-02-18T20:15:38.804Z,121.40
2019-02-18T20:18:07.859Z,120.60
2019-02-18T20:20:36.756Z,114.00
2019-02-18T20:23:06.488Z,83.47
2019-02-18T20:25:35.557Z,80.53
2019-02-18T20:28:04.842Z,67.00
2019-02-18T20:30:33.993Z,68.33
2019-02-18T20:33:03.049Z,85.22
2019-02-18T20:35:32.816Z,109.48
2019-02-18T20:38:01.795Z,86.47
2019-02-18T20:40:30.801Z,84.07
2019-02-18T20:42:59.901Z,82.35
2019-02-18T20:45:30.017Z,93.17
2019-02-18T20:47:59.056Z,109.75
2019-02-18T20:50:28.062Z,101.18
2019-02-18T20:52:56.965Z,106.03
2019-02-18T20:55:26.548Z,88.87
2019-02-18T20:57:55.729Z,102.25
2019-02-18T21:00:24.843Z,101.47
2019-02-18T21:02:54.876Z,98.03
2019-02-18T21:05:23.736Z,98.97
2019-02-18T21:07:53.582Z,97.42
2019-02-18T21:10:24.160Z,90.42
2019-02-18T21:12:52.443Z,100.90
2019-02-18T21:15:21.676Z,101.50
2019-02-18T21:17:50.358Z,103.07
2019-02-18T21:20:19.404Z,101.80
2019-02-18T21:22:48.355Z,88.07
2019-02-18T21:25:17.437Z,91.75
2019-02-18T21:27:47.172Z,94.97
2019-02-18T21:30:16.135Z,103.70
2019-02-18T21:32:44.884Z,89.00
2019-02-18T21:35:13.952Z,88.20
2019-02-18T21:37:43.059Z,103.83
2019-02-18T21:40:12.244Z,105.85
2019-02-18T21:42:41.339Z,113.05
2019-02-18T21:45:10.811Z,106.10
2019-02-18T21:47:40.421Z,103.05
2019-02-18T21:50:09.349Z,98.00
2019-02-18T21:52:38.511Z,112.55
2019-02-18T21:55:07.753Z,109.57
2019-02-18T21:57:36.816Z,107.95
2019-02-18T22:00:08.079Z,94.20
2019-02-18T22:02:37.361Z,119.20
2019-02-18T22:05:06.944Z,112.40
2019-02-18T22:07:36.162Z,98.35
2019-02-18T22:10:04.993Z,119.33
2019-02-18T22:12:34.608Z,93.45
2019-02-18T22:15:03.711Z,92.60
2019-02-18T22:17:32.758Z,102.00
2019-02-18T22:20:01.865Z,107.67
2019-02-18T22:22:30.909Z,111.45
2019-02-18T22:25:00.287Z,104.78
2019-02-18T22:27:29.205Z,102.38
2019-02-18T22:29:59.016Z,96.00
2019-02-18T22:32:27.847Z,110.92
2019-02-18T22:34:56.651Z,89.58
2019-02-18T22:37:26.368Z,97.57
2019-02-18T22:39:55.359Z,98.92
2019-02-18T22:42:25.965Z,108.63
2019-02-18T22:44:54.845Z,97.35
2019-02-18T22:47:23.923Z,102.22
2019-02-18T22:49:53.004Z,93.45
2019-02-18T22:52:22.055Z,93.50
2019-02-18T22:54:51.085Z,97.10
2019-02-18T22:57:20.181Z,97.15
2019-02-18T22:59:49.239Z,94.40
2019-02-18T23:02:18.351Z,92.37
2019-02-18T23:04:47.919Z,96.95
2019-02-18T23:07:17.265Z,102.50
2019-02-18T23:09:46.482Z,97.97
2019-02-18T23:12:16.236Z,99.25
2019-02-18T23:14:50.507Z,103.32
2019-02-18T23:17:15.076Z,105.07
2019-02-18T23:19:45.728Z,115.15
2019-02-18T23:22:15.335Z,115.00
2019-02-18T23:24:44.361Z,112.25
2019-02-18T23:27:14.515Z,102.40
2019-02-18T23:29:43.624Z,103.75
2019-02-18T23:32:12.726Z,110.28
2019-02-18T23:34:41.952Z,97.50
2019-02-18T23:37:11.518Z,91.15
2019-02-18T23:39:41.067Z,94.70
2019-02-18T23:42:10.768Z,93.00
2019-02-18T23:44:39.829Z,92.80
2019-02-18T23:47:09.329Z,93.45
2019-02-18T23:49:38.776Z,94.37
2019-02-18T23:52:07.740Z,96.30
2019-02-18T23:54:36.805Z,101.38
2019-02-18T23:57:05.927Z,101.75
2019-02-18T23:59:36.182Z,96.12
